Time;durP1;ratioP1;P1;durP2;ratioP2;P2;SDS_P1;SDS_P2;PMS_P1;PMS_P2;Temp;Humidity;BMP_temperature;BMP_pressure;BME280_temperature;BME280_humidity;BME280_pressure;Samples;Min_cycle;Max_cycle;Signal;HPM_P1;HPM_P2
2022/03/04 00:00:50;;;;;;;21.48;9.30;;;0.70;99.90;;;;;;5064058;28;20041;-81
2022/03/04 00:03:16;;;;;;;21.63;9.50;;;0.60;99.90;;;;;;5064563;28;20036;-80
2022/03/04 00:05:42;;;;;;;18.92;10.60;;;0.60;99.90;;;;;;5062845;28;20052;-81
2022/03/04 00:08:08;;;;;;;21.05;10.70;;;0.50;99.90;;;;;;5063797;28;20392;-81
2022/03/04 00:10:35;;;;;;;23.35;10.82;;;0.50;99.90;;;;;;5063687;28;20109;-81
2022/03/04 00:13:01;;;;;;;20.17;10.73;;;0.50;99.90;;;;;;5064600;28;20040;-80
2022/03/04 00:15:28;;;;;;;18.45;9.68;;;0.50;99.90;;;;;;5064026;28;20151;-80
2022/03/04 00:17:54;;;;;;;21.33;9.52;;;0.40;99.90;;;;;;5063996;28;20044;-80
2022/03/04 00:20:19;;;;;;;20.38;10.38;;;1.80;99.90;;;;;;5065399;28;20556;-80
2022/03/04 00:22:45;;;;;;;22.58;10.73;;;0.40;99.90;;;;;;5067002;28;20054;-80
2022/03/04 00:25:11;;;;;;;18.02;10.23;;;0.30;99.90;;;;;;5066948;28;20051;-80
2022/03/04 00:27:37;;;;;;;20.15;9.60;;;1.80;99.90;;;;;;5065794;28;20044;-80
2022/03/04 00:30:04;;;;;;;19.30;9.23;;;0.40;99.90;;;;;;5067990;28;20037;-80
2022/03/04 00:32:30;;;;;;;22.08;10.48;;;0.30;99.90;;;;;;5067346;28;20530;-80
2022/03/04 00:34:56;;;;;;;20.02;10.43;;;0.30;99.90;;;;;;5067534;28;20037;-80
2022/03/04 00:37:22;;;;;;;24.17;10.77;;;0.30;99.90;;;;;;5066698;28;20044;-80
2022/03/04 00:39:47;;;;;;;21.80;11.02;;;0.30;99.90;;;;;;5064902;28;20048;-80
2022/03/04 00:42:13;;;;;;;19.58;9.48;;;0.20;99.90;;;;;;5067064;28;20131;-80
2022/03/04 00:44:39;;;;;;;19.17;9.55;;;0.20;99.90;;;;;;5065034;28;20040;-80
2022/03/04 00:47:05;;;;;;;21.95;10.05;;;0.20;99.90;;;;;;5066678;28;20052;-80
2022/03/04 00:49:31;;;;;;;14.65;9.10;;;0.20;99.90;;;;;;5065571;28;20041;-80
2022/03/04 00:51:57;;;;;;;15.55;8.57;;;0.10;99.90;;;;;;5049239;28;20416;-80
2022/03/04 00:54:23;;;;;;;20.30;10.23;;;0.10;99.90;;;;;;5049863;28;20111;-80
2022/03/04 00:56:49;;;;;;;19.63;10.10;;;-0.60;99.90;;;;;;5064707;28;20078;-81
2022/03/04 00:59:15;;;;;;;22.55;10.35;;;0.10;99.90;;;;;;5067800;28;20044;-80
2022/03/04 01:01:41;;;;;;;22.15;10.23;;;0.10;99.90;;;;;;5066313;28;20124;-81
2022/03/04 01:04:06;;;;;;;20.40;10.02;;;0.10;99.90;;;;;;5066564;28;20736;-81
2022/03/04 01:06:32;;;;;;;23.92;10.23;;;-0.60;99.90;;;;;;5065289;28;20101;-80
2022/03/04 01:08:58;;;;;;;21.55;11.35;;;0.00;99.90;;;;;;5065544;28;20106;-81
2022/03/04 01:11:24;;;;;;;22.48;9.98;;;0.10;99.90;;;;;;5067467;28;20419;-81
2022/03/04 01:13:49;;;;;;;23.15;10.75;;;0.10;99.90;;;;;;5065111;28;20106;-80
2022/03/04 01:16:15;;;;;;;19.80;9.88;;;0.00;99.90;;;;;;5066700;28;20049;-81
2022/03/04 01:18:41;;;;;;;19.55;9.98;;;0.00;99.90;;;;;;5048293;28;20139;-81
2022/03/04 01:21:06;;;;;;;18.05;9.48;;;0.00;99.90;;;;;;5066803;28;20507;-81
2022/03/04 01:23:32;;;;;;;22.10;10.13;;;0.10;99.90;;;;;;5068315;28;20040;-81
2022/03/04 01:25:58;;;;;;;24.05;9.43;;;0.00;99.90;;;;;;5068496;28;20076;-81
2022/03/04 01:28:24;;;;;;;25.85;10.10;;;1.30;99.90;;;;;;5065992;28;20700;-81
2022/03/04 01:30:50;;;;;;;26.20;10.73;;;0.00;99.90;;;;;;5066555;28;20079;-81
2022/03/04 01:33:16;;;;;;;19.50;10.80;;;0.00;99.90;;;;;;5068181;28;20055;-81
2022/03/04 01:35:42;;;;;;;23.13;10.88;;;0.00;99.90;;;;;;5065182;28;20867;-82
2022/03/04 01:38:08;;;;;;;25.17;10.25;;;0.10;99.90;;;;;;5050116;28;20095;-82
2022/03/04 01:40:34;;;;;;;20.95;10.55;;;0.80;99.90;;;;;;5066341;28;20072;-81
2022/03/04 01:43:00;;;;;;;20.75;10.43;;;0.60;99.90;;;;;;5067990;28;20044;-81
2022/03/04 01:45:26;;;;;;;26.45;10.63;;;0.10;99.90;;;;;;5066073;28;20037;-81
2022/03/04 01:47:52;;;;;;;24.50;10.52;;;0.20;99.90;;;;;;5065263;28;20578;-80
2022/03/04 01:50:18;;;;;;;23.77;10.27;;;0.20;99.90;;;;;;5065355;28;20049;-80
2022/03/04 01:52:43;;;;;;;23.10;11.15;;;0.20;99.90;;;;;;5063396;28;20465;-81
2022/03/04 01:55:09;;;;;;;20.65;10.93;;;0.20;99.90;;;;;;5066331;28;20146;-80
2022/03/04 01:57:36;;;;;;;22.63;10.38;;;0.20;99.90;;;;;;5065827;28;20064;-81
2022/03/04 02:00:05;;;;;;;24.83;10.75;;;0.20;99.90;;;;;;5066315;28;20068;-80
2022/03/04 02:02:30;;;;;;;24.08;10.82;;;0.20;99.90;;;;;;5064575;28;20147;-80
2022/03/04 02:04:56;;;;;;;23.38;10.80;;;0.20;99.90;;;;;;5064186;28;20392;-81
2022/03/04 02:07:22;;;;;;;26.40;11.88;;;0.20;99.90;;;;;;5065211;28;20496;-81
2022/03/04 02:09:48;;;;;;;21.58;10.45;;;0.20;99.90;;;;;;5064922;28;20141;-81
2022/03/04 02:12:14;;;;;;;27.45;11.35;;;0.20;99.90;;;;;;5066260;28;20044;-81
2022/03/04 02:14:40;;;;;;;18.08;9.90;;;0.10;99.90;;;;;;5064088;28;20041;-81
2022/03/04 02:17:05;;;;;;;23.25;10.68;;;-0.40;99.90;;;;;;5065856;28;20037;-81
2022/03/04 02:19:31;;;;;;;25.10;10.90;;;0.10;99.90;;;;;;5064285;28;20123;-81
2022/03/04 02:22:03;;;;;;;23.70;10.05;;;1.20;99.90;;;;;;5063653;28;20043;-81
2022/03/04 02:24:31;;;;;;;21.73;10.95;;;0.10;99.90;;;;;;5064643;28;20056;-81
2022/03/04 02:26:59;;;;;;;25.10;10.45;;;0.10;99.90;;;;;;5063253;28;20048;-81
2022/03/04 02:29:25;;;;;;;27.23;10.57;;;0.10;99.90;;;;;;5064642;28;20123;-81
2022/03/04 02:31:52;;;;;;;22.80;10.55;;;0.10;99.90;;;;;;5063511;28;20492;-81
2022/03/04 02:34:18;;;;;;;24.05;11.35;;;0.40;99.90;;;;;;5047267;28;20044;-82
2022/03/04 02:36:45;;;;;;;30.23;11.18;;;0.10;99.90;;;;;;5064469;28;20072;-81
2022/03/04 02:39:11;;;;;;;27.42;11.40;;;0.10;99.90;;;;;;5063049;28;20048;-81
2022/03/04 02:41:37;;;;;;;22.17;9.82;;;0.10;99.90;;;;;;5064706;28;20043;-81
2022/03/04 02:44:08;;;;;;;24.08;11.20;;;0.10;99.90;;;;;;5063162;28;20044;-82
2022/03/04 02:46:34;;;;;;;23.85;10.32;;;0.10;99.90;;;;;;5064392;28;20048;-81
2022/03/04 02:49:01;;;;;;;22.88;9.70;;;0.00;99.90;;;;;;5030979;28;20075;-81
2022/03/04 02:51:27;;;;;;;23.30;10.82;;;0.00;99.90;;;;;;5047935;28;20044;-81
2022/03/04 02:53:53;;;;;;;19.70;10.18;;;0.60;99.90;;;;;;5047925;28;20048;-81
2022/03/04 02:56:19;;;;;;;23.48;10.30;;;0.00;99.90;;;;;;5064986;28;20068;-81
2022/03/04 02:58:45;;;;;;;21.70;9.77;;;0.00;99.90;;;;;;5064322;28;20044;-81
2022/03/04 03:01:11;;;;;;;20.60;9.60;;;-0.10;99.90;;;;;;5013920;28;20205;-81
2022/03/04 03:03:37;;;;;;;26.02;10.48;;;-0.10;99.90;;;;;;5048327;28;20054;-81
2022/03/04 03:06:04;;;;;;;19.30;10.43;;;0.80;99.90;;;;;;5047261;28;20058;-81
2022/03/04 03:08:30;;;;;;;22.85;10.77;;;-0.10;99.90;;;;;;5064260;28;20036;-81
2022/03/04 03:10:56;;;;;;;21.77;10.95;;;-0.10;99.90;;;;;;5064853;28;20102;-81
2022/03/04 03:13:22;;;;;;;24.85;10.75;;;-0.10;99.90;;;;;;5065267;28;20075;-81
2022/03/04 03:15:49;;;;;;;24.13;10.90;;;-0.20;99.90;;;;;;5064387;28;20083;-81
2022/03/04 03:18:15;;;;;;;21.63;9.85;;;-0.20;99.90;;;;;;5064214;28;20063;-81
2022/03/04 03:20:42;;;;;;;24.95;9.60;;;-0.20;99.90;;;;;;5047302;28;20086;-81
2022/03/04 03:23:08;;;;;;;21.33;10.13;;;-0.20;99.90;;;;;;5064937;28;20058;-81
2022/03/04 03:25:33;;;;;;;19.90;10.30;;;-0.20;99.90;;;;;;5065492;28;20074;-81
2022/03/04 03:28:00;;;;;;;21.92;10.05;;;-0.20;99.90;;;;;;5047134;28;20597;-81
2022/03/04 03:30:26;;;;;;;22.25;11.15;;;-0.30;99.90;;;;;;5046636;28;20048;-81
2022/03/04 03:32:52;;;;;;;21.42;10.43;;;-0.30;99.90;;;;;;5064164;28;20119;-81
2022/03/04 03:35:18;;;;;;;24.60;11.57;;;-0.30;99.90;;;;;;5062883;28;20115;-81
2022/03/04 03:37:43;;;;;;;28.23;10.65;;;-0.30;99.90;;;;;;5047285;28;20053;-81
2022/03/04 03:40:12;;;;;;;27.27;10.77;;;-0.30;99.90;;;;;;5063277;28;20463;-81
2022/03/04 03:42:39;;;;;;;22.83;10.50;;;-0.30;99.90;;;;;;5063665;28;20059;-82
2022/03/04 03:45:07;;;;;;;18.55;9.75;;;-0.30;99.90;;;;;;5047078;28;20446;-81
2022/03/04 03:47:33;;;;;;;23.75;10.73;;;-0.40;99.90;;;;;;5047381;28;20127;-81
2022/03/04 03:49:59;;;;;;;22.70;10.45;;;-0.40;99.90;;;;;;5064748;28;20504;-81
2022/03/04 03:52:25;;;;;;;22.33;11.00;;;0.80;99.90;;;;;;5062869;28;20067;-82
2022/03/04 03:54:51;;;;;;;21.20;10.60;;;-0.40;99.90;;;;;;5067906;28;20045;-80
2022/03/04 03:57:17;;;;;;;22.15;11.02;;;-0.50;99.90;;;;;;5067893;28;20093;-80
2022/03/04 03:59:42;;;;;;;22.85;10.63;;;0.40;99.90;;;;;;5068124;28;20106;-81
2022/03/04 04:02:08;;;;;;;21.00;10.15;;;-0.50;99.90;;;;;;5068032;28;20071;-80
2022/03/04 04:04:34;;;;;;;27.92;11.55;;;-0.50;99.90;;;;;;5050827;28;20044;-81
2022/03/04 04:07:05;;;;;;;23.90;10.45;;;0.10;99.90;;;;;;5069206;28;20063;-80
2022/03/04 04:09:31;;;;;;;27.60;12.05;;;0.00;99.90;;;;;;5052286;28;20040;-81
2022/03/04 04:11:58;;;;;;;23.63;11.10;;;-0.60;99.90;;;;;;5051642;28;20668;-80
2022/03/04 04:14:24;;;;;;;23.55;10.48;;;-0.60;99.90;;;;;;5066949;28;20036;-80
2022/03/04 04:16:50;;;;;;;22.98;10.30;;;-0.60;99.90;;;;;;5067752;28;20048;-81
2022/03/04 04:19:16;;;;;;;26.67;12.60;;;-0.70;99.90;;;;;;5051584;28;20041;-81
2022/03/04 04:21:42;;;;;;;28.45;12.38;;;0.50;99.90;;;;;;5052207;28;20044;-80
2022/03/04 04:24:07;;;;;;;24.98;12.75;;;-0.60;99.90;;;;;;5070676;28;20056;-80
2022/03/04 04:26:33;;;;;;;26.98;12.25;;;-0.60;99.90;;;;;;5050687;28;20036;-81
2022/03/04 04:28:59;;;;;;;27.67;12.70;;;-0.60;99.90;;;;;;5068621;28;20472;-80
2022/03/04 04:31:25;;;;;;;24.63;10.48;;;-0.50;99.90;;;;;;5050568;28;20422;-81
2022/03/04 04:33:51;;;;;;;32.38;12.45;;;-0.50;99.90;;;;;;5068272;28;20054;-81
2022/03/04 04:36:18;;;;;;;32.10;12.07;;;0.70;99.90;;;;;;5068092;28;20036;-80
2022/03/04 04:38:43;;;;;;;25.95;11.55;;;-0.40;99.90;;;;;;5068293;28;20135;-81
2022/03/04 04:41:09;;;;;;;28.02;12.02;;;-0.50;99.90;;;;;;5067827;28;20166;-81
2022/03/04 04:43:35;;;;;;;36.88;13.13;;;-0.40;99.90;;;;;;5050028;28;20076;-81
2022/03/04 04:46:03;;;;;;;26.67;12.70;;;-0.40;99.90;;;;;;5051921;28;20044;-79
2022/03/04 04:48:29;;;;;;;22.65;12.30;;;-0.40;99.90;;;;;;5066624;28;20044;-80
2022/03/04 04:50:54;;;;;;;24.88;11.93;;;-0.40;99.90;;;;;;5068031;28;20052;-80
2022/03/04 04:53:20;;;;;;;27.90;12.02;;;-0.40;99.90;;;;;;5069019;28;20520;-80
2022/03/04 04:55:46;;;;;;;29.02;11.68;;;0.80;99.90;;;;;;5050191;28;20045;-79
2022/03/04 04:58:12;;;;;;;27.15;12.00;;;-0.40;99.90;;;;;;5067581;28;20054;-79
2022/03/04 05:00:38;;;;;;;25.45;12.70;;;-0.40;99.90;;;;;;5049655;28;20051;-80
2022/03/04 05:03:03;;;;;;;26.95;12.38;;;-0.40;99.90;;;;;;5051403;28;20037;-80
2022/03/04 05:05:29;;;;;;;27.80;12.13;;;-0.40;99.90;;;;;;5067212;28;20484;-80
2022/03/04 05:07:55;;;;;;;31.75;12.73;;;-0.40;99.90;;;;;;5068575;28;20063;-80
2022/03/04 05:10:21;;;;;;;27.48;11.43;;;-0.40;99.90;;;;;;5067028;28;20052;-81
2022/03/04 05:12:46;;;;;;;21.95;11.00;;;-0.40;99.90;;;;;;5049749;28;20411;-81
2022/03/04 05:15:12;;;;;;;23.90;11.27;;;-0.40;99.90;;;;;;5049604;28;20052;-81
2022/03/04 05:17:38;;;;;;;34.22;12.20;;;0.60;99.90;;;;;;5065203;28;20133;-81
2022/03/04 05:20:04;;;;;;;24.15;11.23;;;-0.40;99.90;;;;;;5032988;28;20041;-81
2022/03/04 05:22:30;;;;;;;22.52;11.13;;;-0.40;99.90;;;;;;5065038;28;20048;-81
2022/03/04 05:24:56;;;;;;;26.27;11.98;;;0.90;99.90;;;;;;5065627;28;20193;-81
2022/03/04 05:27:22;;;;;;;26.38;12.77;;;-0.40;99.90;;;;;;5048920;28;20097;-80
2022/03/04 05:29:47;;;;;;;28.70;11.70;;;-0.40;99.90;;;;;;5031914;28;20476;-79
2022/03/04 05:32:13;;;;;;;22.38;10.85;;;-0.40;99.90;;;;;;5049382;28;20044;-79
2022/03/04 05:34:41;;;;;;;23.33;12.20;;;-0.40;99.90;;;;;;5031464;28;20190;-80
2022/03/04 05:37:07;;;;;;;34.03;13.73;;;0.50;99.90;;;;;;5049988;28;20044;-80
2022/03/04 05:39:32;;;;;;;25.88;13.02;;;-0.40;99.90;;;;;;5031293;28;20048;-79
2022/03/04 05:41:58;;;;;;;26.10;11.93;;;-0.40;99.90;;;;;;5049354;28;20124;-80
2022/03/04 05:44:25;;;;;;;27.20;12.10;;;-0.40;99.90;;;;;;5065502;28;20452;-80
2022/03/04 05:46:51;;;;;;;25.10;12.55;;;-0.30;99.90;;;;;;5067724;28;20048;-80
2022/03/04 05:49:17;;;;;;;26.77;12.90;;;-0.30;99.90;;;;;;5049741;28;20045;-82
2022/03/04 05:51:43;;;;;;;27.70;13.55;;;-0.30;99.90;;;;;;5032016;28;20049;-81
2022/03/04 05:54:09;;;;;;;24.45;12.77;;;-0.30;99.90;;;;;;5033769;28;20037;-81
2022/03/04 05:56:35;;;;;;;28.33;12.15;;;-0.30;99.90;;;;;;5064927;28;20078;-80
2022/03/04 05:59:00;;;;;;;27.75;12.32;;;-0.30;99.90;;;;;;5049078;28;20395;-81
2022/03/04 06:01:26;;;;;;;24.63;11.80;;;-0.30;99.90;;;;;;5064345;28;20087;-80
2022/03/04 06:03:52;;;;;;;28.58;12.18;;;-0.30;99.90;;;;;;5064536;28;20127;-81
2022/03/04 06:06:17;;;;;;;26.27;12.23;;;-0.20;99.90;;;;;;5064902;28;20101;-81
2022/03/04 06:08:43;;;;;;;31.05;13.57;;;-0.30;99.90;;;;;;5030440;28;20033;-78
2022/03/04 06:11:10;;;;;;;24.30;12.30;;;-0.30;99.90;;;;;;5064752;28;20044;-80
2022/03/04 06:13:36;;;;;;;27.15;13.10;;;-0.30;99.90;;;;;;5046776;28;20056;-80
2022/03/04 06:16:03;;;;;;;25.92;12.73;;;-0.30;99.90;;;;;;5047920;28;20036;-81
2022/03/04 06:18:29;;;;;;;25.77;12.25;;;-0.30;99.90;;;;;;5046300;28;20041;-81
2022/03/04 06:20:55;;;;;;;28.75;14.15;;;-0.30;99.90;;;;;;5047814;28;20047;-80
2022/03/04 06:23:21;;;;;;;26.20;12.60;;;-0.30;99.90;;;;;;5064245;28;20508;-80
2022/03/04 06:25:47;;;;;;;29.73;14.48;;;-0.20;99.90;;;;;;5030732;28;20072;-79
2022/03/04 06:28:13;;;;;;;29.65;13.60;;;-0.30;99.90;;;;;;5064689;28;20134;-80
2022/03/04 06:30:39;;;;;;;29.33;13.10;;;-0.30;99.90;;;;;;5030164;28;20198;-79
2022/03/04 06:35:51;;;;;;;28.88;12.65;;;-0.30;99.90;;;;;;5064824;28;20047;-79
2022/03/04 06:38:17;;;;;;;27.38;12.60;;;0.40;99.90;;;;;;5064031;28;20373;-78
2022/03/04 06:40:45;;;;;;;26.65;12.48;;;-0.20;99.90;;;;;;5064131;28;20059;-78
2022/03/04 06:43:11;;;;;;;26.35;12.90;;;-0.20;99.90;;;;;;5063304;28;20530;-78
2022/03/04 06:45:40;;;;;;;25.42;13.32;;;-0.20;99.90;;;;;;5065123;28;20399;-79
2022/03/04 06:48:05;;;;;;;28.88;13.30;;;-0.10;99.90;;;;;;5046617;28;20048;-79
2022/03/04 06:50:31;;;;;;;25.73;12.40;;;-0.10;99.90;;;;;;5064627;28;20498;-77
2022/03/04 06:52:57;;;;;;;33.72;13.20;;;1.00;99.90;;;;;;5030114;28;20514;-79
2022/03/04 06:55:23;;;;;;;24.88;11.85;;;-0.20;99.90;;;;;;5063938;28;20048;-79
2022/03/04 06:57:51;;;;;;;23.60;11.95;;;-0.20;99.90;;;;;;5047701;28;20045;-76
2022/03/04 07:00:18;;;;;;;25.50;13.05;;;-0.20;99.90;;;;;;5013576;28;20110;-78
2022/03/04 07:02:44;;;;;;;24.88;11.70;;;-0.20;99.90;;;;;;5063898;28;20070;-79
2022/03/04 07:05:10;;;;;;;28.67;12.85;;;-0.20;99.90;;;;;;5046213;28;20044;-79
2022/03/04 07:07:36;;;;;;;25.75;12.35;;;-0.20;99.90;;;;;;5063721;28;20045;-80
2022/03/04 07:10:04;;;;;;;28.73;12.98;;;-0.20;99.90;;;;;;5029817;28;20403;-79
2022/03/04 07:12:30;;;;;;;25.90;12.75;;;-0.20;99.90;;;;;;5046454;28;20044;-79
2022/03/04 07:14:56;;;;;;;24.35;12.95;;;-0.20;99.90;;;;;;5063659;28;20123;-79
2022/03/04 07:17:22;;;;;;;27.73;13.52;;;-0.20;99.90;;;;;;5013514;28;20132;-80
2022/03/04 07:19:48;;;;;;;32.13;14.52;;;-0.10;99.90;;;;;;5046781;28;20055;-80
2022/03/04 07:22:14;;;;;;;27.33;13.52;;;-0.10;99.90;;;;;;5045870;28;20127;-79
2022/03/04 07:24:40;;;;;;;30.52;12.73;;;-0.10;99.90;;;;;;5065252;28;20049;-79
2022/03/04 07:27:06;;;;;;;34.80;14.48;;;0.00;99.90;;;;;;5063099;28;20048;-79
2022/03/04 07:29:31;;;;;;;28.20;13.38;;;0.10;99.90;;;;;;5068735;28;20048;-79
2022/03/04 07:31:57;;;;;;;25.83;12.93;;;0.10;99.90;;;;;;5069231;28;20041;-79
2022/03/04 07:34:24;;;;;;;27.48;12.38;;;0.10;99.90;;;;;;5066793;28;20131;-79
2022/03/04 07:36:51;;;;;;;26.63;13.15;;;0.20;99.90;;;;;;5069548;28;20048;-79
2022/03/04 07:39:17;;;;;;;26.52;13.50;;;0.20;99.90;;;;;;5049909;28;20060;-79
2022/03/04 07:41:43;;;;;;;27.73;12.50;;;0.30;99.90;;;;;;5068103;28;20056;-79
2022/03/04 07:44:10;;;;;;;32.85;13.48;;;0.20;99.90;;;;;;5033758;28;20052;-79
2022/03/04 07:46:36;;;;;;;27.02;14.00;;;0.30;99.90;;;;;;5068707;28;20056;-79
2022/03/04 07:49:03;;;;;;;27.02;12.75;;;0.30;99.90;;;;;;5068788;28;20080;-79
2022/03/04 07:51:29;;;;;;;29.23;12.93;;;0.40;99.90;;;;;;5033528;28;20515;-79
2022/03/04 07:53:55;;;;;;;26.80;12.93;;;0.40;99.90;;;;;;5067742;28;20080;-78
2022/03/04 07:56:21;;;;;;;22.00;11.15;;;0.50;99.90;;;;;;5049752;28;20041;-78
2022/03/04 07:58:47;;;;;;;22.75;11.68;;;0.50;99.90;;;;;;5067509;28;20051;-78
2022/03/04 08:01:13;;;;;;;23.95;11.63;;;0.50;99.90;;;;;;5068084;28;20045;-78
2022/03/04 08:03:38;;;;;;;19.80;11.40;;;0.50;99.90;;;;;;5033941;28;20451;-79
2022/03/04 08:06:04;;;;;;;24.35;10.95;;;0.50;99.90;;;;;;5068548;28;20067;-78
2022/03/04 08:08:30;;;;;;;21.77;11.60;;;0.50;99.90;;;;;;5066152;28;20037;-78
2022/03/04 08:10:56;;;;;;;23.40;11.10;;;0.50;99.90;;;;;;5067599;28;20045;-77
2022/03/04 08:13:21;;;;;;;22.40;10.85;;;0.60;99.90;;;;;;5032828;28;20118;-78
2022/03/04 08:15:47;;;;;;;25.40;11.15;;;0.60;99.90;;;;;;5050757;28;20048;-76
2022/03/04 08:18:13;;;;;;;19.23;11.35;;;0.70;99.90;;;;;;5067950;28;20544;-78
2022/03/04 08:20:39;;;;;;;18.80;10.80;;;0.60;99.90;;;;;;5067797;28;20430;-79
2022/03/04 08:23:06;;;;;;;21.98;11.93;;;0.70;99.90;;;;;;5066260;28;20055;-79
2022/03/04 08:25:32;;;;;;;29.88;12.15;;;0.80;99.90;;;;;;5065903;28;20041;-79
2022/03/04 08:27:58;;;;;;;20.45;10.88;;;0.90;99.90;;;;;;5067453;28;20456;-79
2022/03/04 08:30:24;;;;;;;21.42;11.55;;;0.90;99.90;;;;;;5049368;28;20496;-79
2022/03/04 08:32:50;;;;;;;22.73;11.35;;;1.00;99.90;;;;;;5068574;28;20051;-79
2022/03/04 08:35:16;;;;;;;19.85;10.63;;;1.00;99.90;;;;;;5067310;28;20041;-78
2022/03/04 08:37:42;;;;;;;22.75;10.70;;;1.00;99.90;;;;;;5067750;28;20048;-78
2022/03/04 08:40:10;;;;;;;24.55;11.57;;;1.10;99.90;;;;;;5064780;28;20296;-78
2022/03/04 08:42:37;;;;;;;22.23;10.38;;;1.10;99.90;;;;;;5048861;28;20053;-78
2022/03/04 08:45:04;;;;;;;21.05;11.50;;;1.20;99.90;;;;;;5068253;28;20120;-78
2022/03/04 08:47:30;;;;;;;20.25;10.82;;;1.30;99.90;;;;;;5048591;28;20407;-79
2022/03/04 08:49:56;;;;;;;22.63;11.40;;;1.30;99.90;;;;;;5066379;28;20051;-78
2022/03/04 08:52:22;;;;;;;20.65;11.35;;;1.40;99.90;;;;;;5066636;28;20082;-77
2022/03/04 08:54:49;;;;;;;25.58;11.40;;;1.50;99.90;;;;;;5067043;28;20044;-77
2022/03/04 08:57:14;;;;;;;23.02;11.48;;;1.60;99.90;;;;;;5066726;28;20051;-77
2022/03/04 08:59:40;;;;;;;23.25;12.15;;;1.60;99.90;;;;;;5066415;28;20077;-77
2022/03/04 09:02:06;;;;;;;21.40;11.13;;;1.70;99.90;;;;;;5067421;28;20094;-77
2022/03/04 09:04:32;;;;;;;23.95;11.30;;;1.70;99.90;;;;;;5066422;28;20512;-78
2022/03/04 09:06:58;;;;;;;17.58;10.80;;;1.80;99.90;;;;;;5066080;28;20123;-77
2022/03/04 09:09:24;;;;;;;20.77;10.13;;;1.90;99.90;;;;;;5064943;28;20040;-77
2022/03/04 09:11:49;;;;;;;17.20;9.55;;;2.00;99.90;;;;;;5067106;28;20041;-77
2022/03/04 09:14:19;;;;;;;23.55;10.50;;;2.00;99.90;;;;;;5066502;28;20048;-77
2022/03/04 09:16:46;;;;;;;20.75;10.02;;;2.30;99.90;;;;;;5066324;28;20439;-77
2022/03/04 09:19:11;;;;;;;18.33;11.07;;;2.10;99.90;;;;;;5065593;28;20534;-78
2022/03/04 09:21:37;;;;;;;19.00;11.38;;;2.10;99.90;;;;;;5064853;28;20041;-78
2022/03/04 09:24:04;;;;;;;19.23;10.88;;;2.70;99.90;;;;;;5065942;28;20135;-78
2022/03/04 09:26:30;;;;;;;18.60;11.32;;;2.30;99.90;;;;;;5066132;28;20040;-78
2022/03/04 09:28:57;;;;;;;18.90;10.15;;;2.60;99.90;;;;;;5065557;28;20045;-78
2022/03/04 09:31:22;;;;;;;20.27;9.88;;;3.90;99.90;;;;;;5064984;28;20268;-78
2022/03/04 09:33:48;;;;;;;15.82;10.02;;;2.80;99.90;;;;;;5066159;28;20476;-78
2022/03/04 09:36:14;;;;;;;21.20;11.07;;;3.00;99.90;;;;;;5067250;28;20407;-78
2022/03/04 09:38:42;;;;;;;16.40;10.45;;;3.10;99.90;;;;;;5064573;28;20086;-78
2022/03/04 09:41:08;;;;;;;17.70;9.80;;;3.30;99.90;;;;;;5032400;28;20051;-78
2022/03/04 09:43:35;;;;;;;16.67;9.73;;;3.40;99.90;;;;;;5065592;28;20110;-78
2022/03/04 09:46:01;;;;;;;17.48;9.38;;;3.40;99.90;;;;;;5066608;28;20040;-78
2022/03/04 09:48:27;;;;;;;16.02;9.30;;;3.30;99.90;;;;;;5066009;28;20044;-78
2022/03/04 09:50:52;;;;;;;16.23;9.82;;;3.30;99.90;;;;;;5065867;28;20045;-78
2022/03/04 09:53:19;;;;;;;16.30;9.55;;;4.20;99.90;;;;;;5064699;28;20048;-78
2022/03/04 09:55:45;;;;;;;15.80;9.50;;;4.20;99.90;;;;;;5064132;28;20049;-78
2022/03/04 09:58:16;;;;;;;17.55;9.60;;;3.60;99.90;;;;;;5066541;28;20041;-78
2022/03/04 10:00:43;;;;;;;23.02;10.25;;;3.70;99.90;;;;;;5065693;28;20123;-78
2022/03/04 10:03:46;;;;;;;18.10;9.85;;;3.90;99.90;;;;;;5064622;28;20047;-78
2022/03/04 10:06:12;;;;;;;16.08;9.35;;;4.00;99.90;;;;;;5048335;28;20373;-78
2022/03/04 10:08:46;;;;;;;13.60;8.18;;;4.10;99.90;;;;;;5064055;28;20626;-78
2022/03/04 10:11:22;;;;;;;11.75;8.27;;;4.30;99.90;;;;;;5065165;28;20033;-78
2022/03/04 10:13:50;;;;;;;13.32;8.80;;;4.50;99.90;;;;;;5064069;28;20362;-78
2022/03/04 10:16:43;;;;;;;15.65;8.73;;;4.50;99.90;;;;;;5064055;28;20110;-78
2022/03/04 10:19:29;;;;;;;13.65;8.98;;;4.70;99.90;;;;;;5030289;28;20048;-78
2022/03/04 10:22:00;;;;;;;19.27;9.35;;;4.80;99.90;;;;;;5031050;28;20040;-77
2022/03/04 10:24:33;;;;;;;16.38;8.82;;;4.90;99.90;;;;;;5064324;28;20075;-77
2022/03/04 10:27:13;;;;;;;14.38;8.25;;;5.00;99.90;;;;;;5065526;28;20459;-78
2022/03/04 10:29:43;;;;;;;15.57;8.65;;;5.20;99.90;;;;;;5047283;28;20449;-78
2022/03/04 10:32:13;;;;;;;13.68;8.40;;;5.30;99.90;;;;;;5064912;28;20121;-77
2022/03/04 10:34:59;;;;;;;13.40;7.53;;;5.50;99.90;;;;;;5063226;28;20044;-77
2022/03/04 10:37:54;;;;;;;14.20;8.23;;;5.50;99.90;;;;;;5047176;28;20044;-77
2022/03/04 10:40:24;;;;;;;15.13;8.05;;;5.60;99.90;;;;;;5065343;28;20511;-77
2022/03/04 10:43:05;;;;;;;11.90;7.72;;;5.70;99.90;;;;;;5063649;28;20064;-77
2022/03/04 10:45:42;;;;;;;13.15;7.20;;;5.90;99.90;;;;;;5064009;28;20520;-77
2022/03/04 10:48:19;;;;;;;14.55;7.93;;;6.00;99.90;;;;;;5063769;28;20047;-77
2022/03/04 10:50:56;;;;;;;12.32;7.60;;;6.10;99.90;;;;;;5063413;28;20064;-78
2022/03/04 10:53:29;;;;;;;15.55;7.25;;;6.20;99.90;;;;;;5047323;28;20084;-78
2022/03/04 10:56:06;;;;;;;13.02;7.95;;;6.20;99.90;;;;;;5063197;28;20044;-78
2022/03/04 10:58:34;;;;;;;10.57;6.68;;;6.20;99.90;;;;;;5047092;28;20041;-77
2022/03/04 11:01:12;;;;;;;11.18;6.82;;;6.30;99.90;;;;;;5046941;28;20457;-77
2022/03/04 11:03:40;;;;;;;10.35;6.78;;;6.40;99.90;;;;;;5062628;28;20137;-76
2022/03/04 11:06:09;;;;;;;14.75;7.93;;;6.60;99.90;;;;;;5063857;28;20044;-77
2022/03/04 11:08:38;;;;;;;12.20;6.40;;;6.50;99.90;;;;;;5062821;28;20181;-78
2022/03/04 11:11:05;;;;;;;12.77;7.22;;;6.60;99.90;;;;;;5046910;28;20511;-79
2022/03/04 11:13:34;;;;;;;11.88;7.35;;;6.80;99.90;;;;;;5062856;28;20071;-79
2022/03/04 11:16:00;;;;;;;13.90;7.43;;;8.00;99.90;;;;;;5030890;28;20135;-78
2022/03/04 11:18:26;;;;;;;13.32;7.22;;;6.90;99.90;;;;;;5064844;28;20047;-78
2022/03/04 11:20:55;;;;;;;12.63;7.68;;;7.00;99.90;;;;;;5064531;28;20058;-76
2022/03/04 11:23:29;;;;;;;12.32;7.60;;;7.10;99.90;;;;;;5063737;28;20101;-77
2022/03/04 11:25:57;;;;;;;12.68;7.03;;;8.10;99.90;;;;;;5063150;28;20048;-77
2022/03/04 11:28:38;;;;;;;12.35;7.47;;;7.20;99.90;;;;;;5063450;28;20128;-78
2022/03/04 11:31:09;;;;;;;11.70;6.80;;;7.20;99.90;;;;;;5066064;28;20723;-77
2022/03/04 11:33:38;;;;;;;9.35;6.32;;;7.30;99.90;;;;;;5065626;28;20033;-77
2022/03/04 11:36:16;;;;;;;11.98;7.00;;;8.10;99.90;;;;;;5063412;28;20484;-77
2022/03/04 11:38:55;;;;;;;12.80;6.75;;;7.50;99.90;;;;;;5046530;28;20044;-77
2022/03/04 11:41:38;;;;;;;11.45;7.28;;;7.60;99.90;;;;;;5064691;28;20060;-77
2022/03/04 11:44:15;;;;;;;10.98;7.22;;;7.60;99.90;;;;;;5047683;28;20048;-77
2022/03/04 11:46:50;;;;;;;13.55;8.00;;;7.70;99.90;;;;;;5045145;28;20048;-77
2022/03/04 11:49:34;;;;;;;10.43;7.25;;;7.70;99.90;;;;;;5046669;28;20044;-77
2022/03/04 11:52:11;;;;;;;15.75;7.75;;;7.80;99.90;;;;;;5062951;28;20041;-77
2022/03/04 11:54:42;;;;;;;10.00;6.53;;;8.00;99.90;;;;;;5064283;28;20372;-77
2022/03/04 11:57:19;;;;;;;12.90;7.35;;;8.10;99.90;;;;;;5064825;28;20060;-77
2022/03/04 11:59:58;;;;;;;11.63;7.80;;;8.20;99.90;;;;;;5062817;28;20037;-77
2022/03/04 12:02:38;;;;;;;11.63;7.15;;;8.30;99.90;;;;;;5063187;28;20093;-77
2022/03/04 12:05:22;;;;;;;17.05;8.40;;;8.30;99.90;;;;;;5064072;28;20047;-77
2022/03/04 12:07:56;;;;;;;15.10;8.10;;;8.30;99.60;;;;;;5064219;28;20076;-77
2022/03/04 12:10:24;;;;;;;13.07;8.07;;;8.40;99.40;;;;;;5064807;28;20043;-78
2022/03/04 12:13:00;;;;;;;16.27;8.65;;;8.30;99.90;;;;;;5063717;28;20400;-77
2022/03/04 12:15:26;;;;;;;16.25;8.63;;;8.50;99.90;;;;;;5032459;28;20044;-77
2022/03/04 12:18:03;;;;;;;13.65;8.75;;;8.40;99.90;;;;;;5066046;28;20315;-78
2022/03/04 12:20:41;;;;;;;12.88;8.23;;;8.50;99.90;;;;;;5067893;28;20048;-77
2022/03/04 12:23:13;;;;;;;15.90;8.70;;;8.60;95.90;;;;;;5068697;28;20564;-77
2022/03/04 12:25:55;;;;;;;13.98;7.38;;;8.60;99.30;;;;;;5067472;28;20078;-77
2022/03/04 12:28:23;;;;;;;13.18;7.88;;;8.70;95.70;;;;;;5066979;28;20389;-77
2022/03/04 12:31:01;;;;;;;13.05;8.50;;;8.70;99.70;;;;;;5065905;28;20041;-77
2022/03/04 12:33:55;;;;;;;17.05;8.90;;;8.90;93.90;;;;;;5065931;28;20049;-77
2022/03/04 12:36:22;;;;;;;12.15;8.18;;;8.80;93.10;;;;;;5068425;28;20268;-77
2022/03/04 12:38:52;;;;;;;14.43;8.00;;;8.80;97.80;;;;;;5065474;28;20106;-77
2022/03/04 12:41:20;;;;;;;13.70;8.75;;;9.90;98.10;;;;;;5049481;28;20560;-77